sensor_id;sensor_type;location;lat;lon;timestamp;pressure;altitude;pressure_sealevel;temperature;humidity
5146;BME280;2591;48.144;15.152;2023-04-08T00:00:08;76408.53;;;-144.65;75.43
5146;BME280;2591;48.144;15.152;2023-04-08T00:02:36;76404.44;;;-144.65;75.64
5146;BME280;2591;48.144;15.152;2023-04-08T00:05:05;76408.53;;;-144.65;75.64
5146;BME280;2591;48.144;15.152;2023-04-08T00:07:33;76408.53;;;-144.65;75.50
5146;BME280;2591;48.144;15.152;2023-04-08T00:10:03;76404.44;;;-144.65;75.30
5146;BME280;2591;48.144;15.152;2023-04-08T00:12:32;76406.47;;;-144.65;75.76
5146;BME280;2591;48.144;15.152;2023-04-08T00:15:00;76410.56;;;-144.65;75.66
5146;BME280;2591;48.144;15.152;2023-04-08T00:17:27;76408.53;;;-144.65;75.56
5146;BME280;2591;48.144;15.152;2023-04-08T00:19:55;76406.47;;;-144.65;75.81
5146;BME280;2591;48.144;15.152;2023-04-08T00:22:23;76412.59;;;-144.65;75.81
5146;BME280;2591;48.144;15.152;2023-04-08T00:24:51;76404.44;;;-144.65;75.97
5146;BME280;2591;48.144;15.152;2023-04-08T00:27:20;76416.69;;;-144.65;76.14
5146;BME280;2591;48.144;15.152;2023-04-08T00:29:50;76418.72;;;-144.65;76.50
5146;BME280;2591;48.144;15.152;2023-04-08T00:32:18;76420.75;;;-144.65;76.98
5146;BME280;2591;48.144;15.152;2023-04-08T00:34:46;76416.69;;;-144.65;77.71
5146;BME280;2591;48.144;15.152;2023-04-08T00:37:13;76416.69;;;-144.65;77.37
5146;BME280;2591;48.144;15.152;2023-04-08T00:39:41;76416.69;;;-144.65;77.04
5146;BME280;2591;48.144;15.152;2023-04-08T00:42:11;76414.63;;;-144.65;77.93
5146;BME280;2591;48.144;15.152;2023-04-08T00:44:41;76412.59;;;-144.65;78.09
5146;BME280;2591;48.144;15.152;2023-04-08T00:47:11;76408.53;;;-144.65;77.64
5146;BME280;2591;48.144;15.152;2023-04-08T00:49:39;76408.53;;;-144.65;78.20
5146;BME280;2591;48.144;15.152;2023-04-08T00:52:07;76404.44;;;-144.65;77.76
5146;BME280;2591;48.144;15.152;2023-04-08T00:54:35;76404.44;;;-144.65;78.28
5146;BME280;2591;48.144;15.152;2023-04-08T00:57:03;76404.44;;;-144.65;78.21
5146;BME280;2591;48.144;15.152;2023-04-08T00:59:32;76408.53;;;-144.65;77.97
5146;BME280;2591;48.144;15.152;2023-04-08T01:02:08;76402.41;;;-144.65;77.74
5146;BME280;2591;48.144;15.152;2023-04-08T01:04:43;76398.31;;;-144.65;78.14
5146;BME280;2591;48.144;15.152;2023-04-08T01:07:20;76404.44;;;-144.65;77.74
5146;BME280;2591;48.144;15.152;2023-04-08T01:09:53;76406.47;;;-144.65;78.79
5146;BME280;2591;48.144;15.152;2023-04-08T01:12:24;76408.53;;;-144.65;78.42
5146;BME280;2591;48.144;15.152;2023-04-08T01:14:57;76404.44;;;-144.65;78.80
5146;BME280;2591;48.144;15.152;2023-04-08T01:17:29;76412.59;;;-144.65;78.78
5146;BME280;2591;48.144;15.152;2023-04-08T01:19:59;76414.63;;;-144.65;79.15
5146;BME280;2591;48.144;15.152;2023-04-08T01:22:33;76416.69;;;-144.65;79.11
5146;BME280;2591;48.144;15.152;2023-04-08T01:25:05;76420.75;;;-144.65;79.27
5146;BME280;2591;48.144;15.152;2023-04-08T01:27:37;76420.75;;;-144.65;79.45
5146;BME280;2591;48.144;15.152;2023-04-08T01:30:07;76420.75;;;-144.65;79.28
5146;BME280;2591;48.144;15.152;2023-04-08T01:32:36;76416.69;;;-144.65;79.33
5146;BME280;2591;48.144;15.152;2023-04-08T01:35:05;76408.53;;;-144.65;79.36
5146;BME280;2591;48.144;15.152;2023-04-08T01:37:34;76406.47;;;-144.65;79.73
5146;BME280;2591;48.144;15.152;2023-04-08T01:40:05;76416.69;;;-144.65;79.49
5146;BME280;2591;48.144;15.152;2023-04-08T01:42:34;76416.69;;;-144.65;79.55
5146;BME280;2591;48.144;15.152;2023-04-08T01:45:06;76422.78;;;-144.65;79.73
5146;BME280;2591;48.144;15.152;2023-04-08T01:47:34;76424.84;;;-144.65;79.78
5146;BME280;2591;48.144;15.152;2023-04-08T01:50:05;76428.91;;;-144.65;79.97
5146;BME280;2591;48.144;15.152;2023-04-08T01:52:34;76428.91;;;-144.65;80.06
5146;BME280;2591;48.144;15.152;2023-04-08T01:55:04;76430.94;;;-144.65;80.47
5146;BME280;2591;48.144;15.152;2023-04-08T01:57:34;76432.97;;;-144.65;80.97
5146;BME280;2591;48.144;15.152;2023-04-08T02:00:07;76441.16;;;-144.65;81.23
5146;BME280;2591;48.144;15.152;2023-04-08T02:02:37;76443.19;;;-144.65;82.06
5146;BME280;2591;48.144;15.152;2023-04-08T02:05:06;76445.22;;;-144.65;82.21
5146;BME280;2591;48.144;15.152;2023-04-08T02:07:34;76453.38;;;-144.65;82.28
5146;BME280;2591;48.144;15.152;2023-04-08T02:10:02;76451.34;;;-144.65;82.54
5146;BME280;2591;48.144;15.152;2023-04-08T02:12:30;76457.44;;;-144.65;83.21
5146;BME280;2591;48.144;15.152;2023-04-08T02:14:59;76465.63;;;-144.65;84.72
5146;BME280;2591;48.144;15.152;2023-04-08T02:17:33;76469.69;;;-144.65;85.87
5146;BME280;2591;48.144;15.152;2023-04-08T02:20:06;76479.88;;;-144.65;86.79
5146;BME280;2591;48.144;15.152;2023-04-08T02:22:42;76486.00;;;-144.65;88.16
5146;BME280;2591;48.144;15.152;2023-04-08T02:25:16;76488.03;;;-144.65;89.32
5146;BME280;2591;48.144;15.152;2023-04-08T02:27:46;76490.06;;;-144.65;90.44
5146;BME280;2591;48.144;15.152;2023-04-08T02:30:15;76498.22;;;-144.65;91.45
5146;BME280;2591;48.144;15.152;2023-04-08T02:32:46;76508.44;;;-144.65;92.36
5146;BME280;2591;48.144;15.152;2023-04-08T02:35:14;76510.47;;;-144.65;94.49
5146;BME280;2591;48.144;15.152;2023-04-08T02:37:44;76506.38;;;-144.65;95.75
5146;BME280;2591;48.144;15.152;2023-04-08T02:40:24;76504.34;;;-144.65;96.56
5146;BME280;2591;48.144;15.152;2023-04-08T02:42:53;76498.22;;;-144.65;96.82
5146;BME280;2591;48.144;15.152;2023-04-08T02:45:21;76506.38;;;-144.65;98.39
5146;BME280;2591;48.144;15.152;2023-04-08T02:47:51;76500.28;;;-144.65;100.00
5146;BME280;2591;48.144;15.152;2023-04-08T02:50:18;76502.31;;;-144.65;100.00
5146;BME280;2591;48.144;15.152;2023-04-08T02:52:46;76504.34;;;-144.65;100.00
5146;BME280;2591;48.144;15.152;2023-04-08T02:55:14;76514.53;;;-144.65;100.00
5146;BME280;2591;48.144;15.152;2023-04-08T02:57:42;76522.69;;;-144.65;100.00
5146;BME280;2591;48.144;15.152;2023-04-08T03:00:11;76518.63;;;-144.65;100.00
5146;BME280;2591;48.144;15.152;2023-04-08T03:02:39;76524.75;;;-144.65;100.00
5146;BME280;2591;48.144;15.152;2023-04-08T03:05:09;76530.84;;;-144.65;100.00
5146;BME280;2591;48.144;15.152;2023-04-08T03:07:37;76539.00;;;-144.65;100.00
5146;BME280;2591;48.144;15.152;2023-04-08T03:10:06;76539.00;;;-144.65;100.00
5146;BME280;2591;48.144;15.152;2023-04-08T03:12:34;76543.09;;;-144.65;100.00
5146;BME280;2591;48.144;15.152;2023-04-08T03:15:02;76547.16;;;-144.65;100.00
5146;BME280;2591;48.144;15.152;2023-04-08T03:17:30;76551.25;;;-144.65;100.00
5146;BME280;2591;48.144;15.152;2023-04-08T03:20:00;76543.09;;;-144.65;100.00
5146;BME280;2591;48.144;15.152;2023-04-08T03:22:31;76555.31;;;-144.65;100.00
5146;BME280;2591;48.144;15.152;2023-04-08T03:24:59;76555.31;;;-144.65;100.00
5146;BME280;2591;48.144;15.152;2023-04-08T03:27:27;76555.31;;;-144.65;100.00
5146;BME280;2591;48.144;15.152;2023-04-08T03:29:55;76559.41;;;-144.65;100.00
5146;BME280;2591;48.144;15.152;2023-04-08T03:32:23;76559.41;;;-144.65;100.00
5146;BME280;2591;48.144;15.152;2023-04-08T03:34:51;76563.47;;;-144.65;100.00
5146;BME280;2591;48.144;15.152;2023-04-08T03:37:19;76573.69;;;-144.65;100.00
5146;BME280;2591;48.144;15.152;2023-04-08T03:39:48;76577.75;;;-144.65;100.00
5146;BME280;2591;48.144;15.152;2023-04-08T03:42:16;76583.88;;;-144.65;100.00
5146;BME280;2591;48.144;15.152;2023-04-08T03:44:44;76590.00;;;-144.65;100.00
5146;BME280;2591;48.144;15.152;2023-04-08T03:47:11;76594.06;;;-144.65;100.00
5146;BME280;2591;48.144;15.152;2023-04-08T03:49:39;76594.06;;;-144.65;100.00
5146;BME280;2591;48.144;15.152;2023-04-08T03:52:07;76596.09;;;-144.65;100.00
5146;BME280;2591;48.144;15.152;2023-04-08T03:54:35;76598.16;;;-144.65;100.00
5146;BME280;2591;48.144;15.152;2023-04-08T03:57:04;76596.09;;;-144.65;100.00
5146;BME280;2591;48.144;15.152;2023-04-08T03:59:32;76600.19;;;-144.65;100.00
5146;BME280;2591;48.144;15.152;2023-04-08T04:02:02;76598.16;;;-144.65;100.00
5146;BME280;2591;48.144;15.152;2023-04-08T04:04:29;76600.19;;;-144.65;100.00
5146;BME280;2591;48.144;15.152;2023-04-08T04:06:57;76604.28;;;-144.65;100.00
5146;BME280;2591;48.144;15.152;2023-04-08T04:09:26;76614.47;;;-144.65;100.00
5146;BME280;2591;48.144;15.152;2023-04-08T04:11:53;76624.66;;;-144.65;100.00
5146;BME280;2591;48.144;15.152;2023-04-08T04:14:22;76624.66;;;-144.65;100.00
5146;BME280;2591;48.144;15.152;2023-04-08T04:16:50;76628.72;;;-144.65;100.00
5146;BME280;2591;48.144;15.152;2023-04-08T04:19:18;76630.78;;;-144.65;100.00
5146;BME280;2591;48.144;15.152;2023-04-08T04:21:46;76632.81;;;-144.65;100.00
5146;BME280;2591;48.144;15.152;2023-04-08T04:24:14;76626.69;;;-144.65;100.00
5146;BME280;2591;48.144;15.152;2023-04-08T04:26:42;76624.66;;;-144.65;100.00
5146;BME280;2591;48.144;15.152;2023-04-08T04:29:09;76632.81;;;-144.65;100.00
5146;BME280;2591;48.144;15.152;2023-04-08T04:31:39;76628.72;;;-144.65;100.00
5146;BME280;2591;48.144;15.152;2023-04-08T04:34:06;76634.84;;;-144.65;100.00
5146;BME280;2591;48.144;15.152;2023-04-08T04:36:34;76643.00;;;-144.65;100.00
5146;BME280;2591;48.144;15.152;2023-04-08T04:39:02;76647.09;;;-144.65;100.00
5146;BME280;2591;48.144;15.152;2023-04-08T04:41:30;76645.03;;;-144.65;100.00
5146;BME280;2591;48.144;15.152;2023-04-08T04:43:57;76640.97;;;-144.65;100.00
5146;BME280;2591;48.144;15.152;2023-04-08T04:46:25;76647.09;;;-144.65;100.00
5146;BME280;2591;48.144;15.152;2023-04-08T04:48:54;76647.09;;;-144.65;100.00
5146;BME280;2591;48.144;15.152;2023-04-08T04:51:22;76653.19;;;-144.65;100.00
5146;BME280;2591;48.144;15.152;2023-04-08T04:53:50;76653.19;;;-144.65;100.00
5146;BME280;2591;48.144;15.152;2023-04-08T04:56:18;76669.53;;;-144.65;100.00
5146;BME280;2591;48.144;15.152;2023-04-08T04:58:46;76661.38;;;-144.65;100.00
5146;BME280;2591;48.144;15.152;2023-04-08T05:01:15;76671.56;;;-144.65;100.00
5146;BME280;2591;48.144;15.152;2023-04-08T05:03:42;76669.53;;;-144.65;100.00
5146;BME280;2591;48.144;15.152;2023-04-08T05:06:12;76685.81;;;-144.65;100.00
5146;BME280;2591;48.144;15.152;2023-04-08T05:08:40;76685.81;;;-144.65;100.00
5146;BME280;2591;48.144;15.152;2023-04-08T05:11:08;76685.81;;;-144.65;100.00
5146;BME280;2591;48.144;15.152;2023-04-08T05:13:36;76694.00;;;-144.65;100.00
5146;BME280;2591;48.144;15.152;2023-04-08T05:16:05;76689.91;;;-144.65;100.00
5146;BME280;2591;48.144;15.152;2023-04-08T05:18:33;76683.78;;;-144.65;100.00
5146;BME280;2591;48.144;15.152;2023-04-08T05:21:01;76679.72;;;-144.65;100.00
5146;BME280;2591;48.144;15.152;2023-04-08T05:23:30;76689.91;;;-144.65;100.00
5146;BME280;2591;48.144;15.152;2023-04-08T05:25:57;76687.88;;;-144.65;100.00
5146;BME280;2591;48.144;15.152;2023-04-08T05:28:25;76706.22;;;-144.65;100.00
5146;BME280;2591;48.144;15.152;2023-04-08T05:30:53;76704.19;;;-144.65;100.00
5146;BME280;2591;48.144;15.152;2023-04-08T05:33:21;76706.22;;;-144.65;100.00
5146;BME280;2591;48.144;15.152;2023-04-08T05:35:49;76706.22;;;-144.65;100.00
5146;BME280;2591;48.144;15.152;2023-04-08T05:38:17;76710.31;;;-144.65;100.00
5146;BME280;2591;48.144;15.152;2023-04-08T05:40:46;76718.47;;;-144.65;100.00
5146;BME280;2591;48.144;15.152;2023-04-08T05:43:13;76706.22;;;-144.65;100.00
5146;BME280;2591;48.144;15.152;2023-04-08T05:45:41;76708.25;;;-144.65;100.00
5146;BME280;2591;48.144;15.152;2023-04-08T05:48:09;76708.25;;;-144.65;100.00
5146;BME280;2591;48.144;15.152;2023-04-08T05:50:37;76708.25;;;-144.65;100.00
5146;BME280;2591;48.144;15.152;2023-04-08T05:53:05;76710.31;;;-144.65;100.00
5146;BME280;2591;48.144;15.152;2023-04-08T05:55:33;76704.19;;;-144.65;100.00
5146;BME280;2591;48.144;15.152;2023-04-08T05:58:02;76712.34;;;-144.65;100.00
5146;BME280;2591;48.144;15.152;2023-04-08T06:00:30;76718.47;;;-144.65;100.00
5146;BME280;2591;48.144;15.152;2023-04-08T06:02:58;76716.41;;;-144.65;100.00
5146;BME280;2591;48.144;15.152;2023-04-08T06:05:26;76712.34;;;-144.65;100.00
5146;BME280;2591;48.144;15.152;2023-04-08T06:07:54;76710.31;;;-144.65;100.00
5146;BME280;2591;48.144;15.152;2023-04-08T06:10:22;76712.34;;;-144.65;100.00
5146;BME280;2591;48.144;15.152;2023-04-08T06:12:50;76702.16;;;-144.65;100.00
5146;BME280;2591;48.144;15.152;2023-04-08T06:15:19;76698.06;;;-144.65;100.00
5146;BME280;2591;48.144;15.152;2023-04-08T06:17:47;76702.16;;;-144.65;100.00
5146;BME280;2591;48.144;15.152;2023-04-08T06:20:15;76698.06;;;-144.65;100.00
5146;BME280;2591;48.144;15.152;2023-04-08T06:22:43;76694.00;;;-144.65;100.00
5146;BME280;2591;48.144;15.152;2023-04-08T06:25:11;76704.19;;;-144.65;100.00
5146;BME280;2591;48.144;15.152;2023-04-08T06:27:39;76702.16;;;-144.65;100.00
5146;BME280;2591;48.144;15.152;2023-04-08T06:30:08;76706.22;;;-144.65;100.00
5146;BME280;2591;48.144;15.152;2023-04-08T06:32:37;76714.38;;;-144.65;100.00
5146;BME280;2591;48.144;15.152;2023-04-08T06:35:06;76706.22;;;-144.65;100.00
5146;BME280;2591;48.144;15.152;2023-04-08T06:37:34;76714.38;;;-144.65;100.00
5146;BME280;2591;48.144;15.152;2023-04-08T06:40:05;76720.50;;;-144.65;100.00
5146;BME280;2591;48.144;15.152;2023-04-08T06:42:33;76714.38;;;-144.65;100.00
5146;BME280;2591;48.144;15.152;2023-04-08T06:45:01;76718.47;;;-144.65;100.00
5146;BME280;2591;48.144;15.152;2023-04-08T06:47:29;76710.31;;;-144.65;100.00
5146;BME280;2591;48.144;15.152;2023-04-08T06:49:58;76714.38;;;-144.65;100.00
5146;BME280;2591;48.144;15.152;2023-04-08T06:52:26;76718.47;;;-144.65;100.00
5146;BME280;2591;48.144;15.152;2023-04-08T06:54:54;76718.47;;;-144.65;100.00
5146;BME280;2591;48.144;15.152;2023-04-08T06:57:21;76718.47;;;-144.65;100.00
5146;BME280;2591;48.144;15.152;2023-04-08T06:59:49;76720.50;;;-144.65;100.00
5146;BME280;2591;48.144;15.152;2023-04-08T07:02:18;76722.53;;;-144.65;100.00
5146;BME280;2591;48.144;15.152;2023-04-08T07:04:48;76724.56;;;-144.65;100.00
5146;BME280;2591;48.144;15.152;2023-04-08T07:07:17;76732.72;;;-144.65;100.00
5146;BME280;2591;48.144;15.152;2023-04-08T07:09:45;76724.56;;;-144.65;100.00
5146;BME280;2591;48.144;15.152;2023-04-08T07:12:12;76726.63;;;-144.65;100.00
5146;BME280;2591;48.144;15.152;2023-04-08T07:14:41;76724.56;;;-144.65;100.00
5146;BME280;2591;48.144;15.152;2023-04-08T07:17:08;76730.69;;;-144.65;100.00
5146;BME280;2591;48.144;15.152;2023-04-08T07:19:36;76722.53;;;-144.65;100.00
5146;BME280;2591;48.144;15.152;2023-04-08T07:22:04;76730.69;;;-144.65;100.00
5146;BME280;2591;48.144;15.152;2023-04-08T07:24:33;76724.56;;;-144.65;100.00
5146;BME280;2591;48.144;15.152;2023-04-08T07:27:01;76722.53;;;-144.65;100.00
5146;BME280;2591;48.144;15.152;2023-04-08T07:29:30;76724.56;;;-144.65;100.00
5146;BME280;2591;48.144;15.152;2023-04-08T07:31:57;76720.50;;;-144.65;100.00
5146;BME280;2591;48.144;15.152;2023-04-08T07:34:25;76718.47;;;-144.65;100.00
5146;BME280;2591;48.144;15.152;2023-04-08T07:36:53;76716.41;;;-144.65;100.00
5146;BME280;2591;48.144;15.152;2023-04-08T07:39:21;76704.19;;;-144.65;100.00
5146;BME280;2591;48.144;15.152;2023-04-08T07:41:50;76702.16;;;-144.65;100.00
5146;BME280;2591;48.144;15.152;2023-04-08T07:44:18;76698.06;;;-144.65;100.00
5146;BME280;2591;48.144;15.152;2023-04-08T07:46:46;76700.09;;;-144.65;100.00
5146;BME280;2591;48.144;15.152;2023-04-08T07:49:17;76696.03;;;-144.65;100.00
5146;BME280;2591;48.144;15.152;2023-04-08T07:51:45;76702.16;;;-144.65;100.00
5146;BME280;2591;48.144;15.152;2023-04-08T07:54:12;76702.16;;;-144.65;100.00
5146;BME280;2591;48.144;15.152;2023-04-08T07:56:42;76710.31;;;-144.65;100.00
5146;BME280;2591;48.144;15.152;2023-04-08T07:59:12;76714.38;;;-144.65;100.00
5146;BME280;2591;48.144;15.152;2023-04-08T08:01:40;76710.31;;;-144.65;100.00
5146;BME280;2591;48.144;15.152;2023-04-08T08:04:08;76706.22;;;-144.65;100.00
5146;BME280;2591;48.144;15.152;2023-04-08T08:06:36;76706.22;;;-144.65;100.00
5146;BME280;2591;48.144;15.152;2023-04-08T08:09:04;76714.38;;;-144.65;100.00
5146;BME280;2591;48.144;15.152;2023-04-08T08:11:31;76716.41;;;-144.65;100.00
5146;BME280;2591;48.144;15.152;2023-04-08T08:13:59;76724.56;;;-144.65;100.00
5146;BME280;2591;48.144;15.152;2023-04-08T08:16:29;76724.56;;;-144.65;100.00
5146;BME280;2591;48.144;15.152;2023-04-08T08:18:59;76726.63;;;-144.65;100.00
5146;BME280;2591;48.144;15.152;2023-04-08T08:21:27;76730.69;;;-144.65;100.00
5146;BME280;2591;48.144;15.152;2023-04-08T08:23:54;76736.81;;;-144.65;100.00
5146;BME280;2591;48.144;15.152;2023-04-08T08:26:23;76734.78;;;-144.65;100.00
5146;BME280;2591;48.144;15.152;2023-04-08T08:28:51;76734.78;;;-144.65;100.00
5146;BME280;2591;48.144;15.152;2023-04-08T08:31:19;76734.78;;;-144.65;100.00
5146;BME280;2591;48.144;15.152;2023-04-08T08:33:48;76738.84;;;-144.65;100.00
5146;BME280;2591;48.144;15.152;2023-04-08T08:36:16;76742.94;;;-144.65;100.00
5146;BME280;2591;48.144;15.152;2023-04-08T08:38:44;76744.97;;;-144.65;100.00
5146;BME280;2591;48.144;15.152;2023-04-08T08:41:12;76740.88;;;-144.65;100.00
5146;BME280;2591;48.144;15.152;2023-04-08T08:43:40;76732.72;;;-144.65;100.00
5146;BME280;2591;48.144;15.152;2023-04-08T08:46:10;76734.78;;;-144.65;100.00
5146;BME280;2591;48.144;15.152;2023-04-08T08:48:38;76734.78;;;-144.65;100.00
5146;BME280;2591;48.144;15.152;2023-04-08T08:51:08;76736.81;;;-144.65;100.00
5146;BME280;2591;48.144;15.152;2023-04-08T08:53:37;76738.84;;;-144.65;100.00
5146;BME280;2591;48.144;15.152;2023-04-08T08:56:10;76742.94;;;-144.65;100.00
5146;BME280;2591;48.144;15.152;2023-04-08T08:58:44;76742.94;;;-144.65;100.00
5146;BME280;2591;48.144;15.152;2023-04-08T09:01:30;76738.84;;;-144.65;100.00
5146;BME280;2591;48.144;15.152;2023-04-08T09:04:11;76744.97;;;-144.65;100.00
5146;BME280;2591;48.144;15.152;2023-04-08T09:06:41;76736.81;;;-144.65;100.00
5146;BME280;2591;48.144;15.152;2023-04-08T09:09:10;76734.78;;;-144.65;100.00
5146;BME280;2591;48.144;15.152;2023-04-08T09:11:39;76734.78;;;-144.65;100.00
5146;BME280;2591;48.144;15.152;2023-04-08T09:14:17;76740.88;;;-144.65;100.00
5146;BME280;2591;48.144;15.152;2023-04-08T09:16:45;76747.00;;;-144.65;100.00
5146;BME280;2591;48.144;15.152;2023-04-08T09:19:13;76747.00;;;-144.65;100.00
5146;BME280;2591;48.144;15.152;2023-04-08T09:21:43;76759.25;;;-144.65;100.00
5146;BME280;2591;48.144;15.152;2023-04-08T09:24:27;76765.34;;;-144.65;100.00
5146;BME280;2591;48.144;15.152;2023-04-08T09:26:55;76767.41;;;-144.65;100.00
5146;BME280;2591;48.144;15.152;2023-04-08T09:29:24;76767.41;;;-144.65;100.00
5146;BME280;2591;48.144;15.152;2023-04-08T09:31:58;76769.44;;;-144.65;100.00
5146;BME280;2591;48.144;15.152;2023-04-08T09:34:28;76773.50;;;-144.65;100.00
5146;BME280;2591;48.144;15.152;2023-04-08T09:36:59;76787.78;;;-144.65;100.00
5146;BME280;2591;48.144;15.152;2023-04-08T09:39:27;76779.63;;;-144.65;100.00
5146;BME280;2591;48.144;15.152;2023-04-08T09:41:57;76779.63;;;-144.65;100.00
5146;BME280;2591;48.144;15.152;2023-04-08T09:44:28;76787.78;;;-144.65;100.00
5146;BME280;2591;48.144;15.152;2023-04-08T09:47:00;76787.78;;;-144.65;100.00
5146;BME280;2591;48.144;15.152;2023-04-08T09:49:34;76787.78;;;-144.65;100.00
5146;BME280;2591;48.144;15.152;2023-04-08T09:52:08;76787.78;;;-144.65;100.00
5146;BME280;2591;48.144;15.152;2023-04-08T09:54:46;76787.78;;;-144.65;100.00
5146;BME280;2591;48.144;15.152;2023-04-08T09:57:16;76783.72;;;-144.65;100.00
5146;BME280;2591;48.144;15.152;2023-04-08T09:59:51;76787.78;;;-144.65;100.00
5146;BME280;2591;48.144;15.152;2023-04-08T10:02:28;76779.63;;;-144.65;100.00
5146;BME280;2591;48.144;15.152;2023-04-08T10:04:58;76767.41;;;-144.65;100.00
5146;BME280;2591;48.144;15.152;2023-04-08T10:07:33;76769.44;;;-144.65;100.00
5146;BME280;2591;48.144;15.152;2023-04-08T10:10:01;76759.25;;;-144.65;100.00
5146;BME280;2591;48.144;15.152;2023-04-08T10:12:30;76753.13;;;-144.65;100.00
5146;BME280;2591;48.144;15.152;2023-04-08T10:15:26;76747.00;;;-144.65;100.00
5146;BME280;2591;48.144;15.152;2023-04-08T10:18:28;76747.00;;;-144.65;100.00
5146;BME280;2591;48.144;15.152;2023-04-08T10:20:45;76747.00;;;-144.65;100.00
5146;BME280;2591;48.144;15.152;2023-04-08T10:23:16;76736.81;;;-144.65;100.00
5146;BME280;2591;48.144;15.152;2023-04-08T10:25:45;76734.78;;;-144.65;100.00
5146;BME280;2591;48.144;15.152;2023-04-08T10:28:23;76734.78;;;-144.65;100.00
5146;BME280;2591;48.144;15.152;2023-04-08T10:30:52;76738.84;;;-144.65;100.00
5146;BME280;2591;48.144;15.152;2023-04-08T10:33:23;76738.84;;;-144.65;100.00
5146;BME280;2591;48.144;15.152;2023-04-08T10:35:58;76732.72;;;-144.65;100.00
5146;BME280;2591;48.144;15.152;2023-04-08T10:38:30;76730.69;;;-144.65;100.00
5146;BME280;2591;48.144;15.152;2023-04-08T10:40:58;76738.84;;;-144.65;100.00
5146;BME280;2591;48.144;15.152;2023-04-08T10:43:31;76751.09;;;-144.65;100.00
5146;BME280;2591;48.144;15.152;2023-04-08T10:45:59;76747.00;;;-144.65;100.00
5146;BME280;2591;48.144;15.152;2023-04-08T10:48:27;76751.09;;;-144.65;100.00
5146;BME280;2591;48.144;15.152;2023-04-08T10:50:56;76755.16;;;-144.65;100.00
5146;BME280;2591;48.144;15.152;2023-04-08T10:53:25;76759.25;;;-144.65;100.00
5146;BME280;2591;48.144;15.152;2023-04-08T10:56:02;76763.31;;;-144.65;100.00
5146;BME280;2591;48.144;15.152;2023-04-08T10:58:31;76775.56;;;-144.65;100.00
5146;BME280;2591;48.144;15.152;2023-04-08T11:01:03;76771.47;;;-144.65;100.00
5146;BME280;2591;48.144;15.152;2023-04-08T11:03:33;76767.41;;;-144.65;100.00
5146;BME280;2591;48.144;15.152;2023-04-08T11:06:14;76765.34;;;-144.65;100.00
5146;BME280;2591;48.144;15.152;2023-04-08T11:08:43;76771.47;;;-144.65;100.00
5146;BME280;2591;48.144;15.152;2023-04-08T11:11:12;76763.31;;;-144.65;100.00
5146;BME280;2591;48.144;15.152;2023-04-08T11:13:44;76755.16;;;-144.65;100.00
5146;BME280;2591;48.144;15.152;2023-04-08T11:16:20;76759.25;;;-144.65;100.00
5146;BME280;2591;48.144;15.152;2023-04-08T11:18:49;76759.25;;;-144.65;100.00
5146;BME280;2591;48.144;15.152;2023-04-08T11:21:17;76763.31;;;-144.65;100.00
5146;BME280;2591;48.144;15.152;2023-04-08T11:23:48;76771.47;;;-144.65;100.00
5146;BME280;2591;48.144;15.152;2023-04-08T11:26:18;76785.75;;;-144.65;100.00
5146;BME280;2591;48.144;15.152;2023-04-08T11:28:46;76787.78;;;-144.65;100.00
5146;BME280;2591;48.144;15.152;2023-04-08T11:31:16;76785.75;;;-144.65;100.00
5146;BME280;2591;48.144;15.152;2023-04-08T11:33:52;76791.88;;;-144.65;100.00
5146;BME280;2591;48.144;15.152;2023-04-08T11:36:20;76791.88;;;-144.65;100.00
5146;BME280;2591;48.144;15.152;2023-04-08T11:38:48;76800.03;;;-144.65;100.00
5146;BME280;2591;48.144;15.152;2023-04-08T11:41:17;76800.03;;;-144.65;100.00
5146;BME280;2591;48.144;15.152;2023-04-08T11:43:53;76804.09;;;-144.65;100.00
5146;BME280;2591;48.144;15.152;2023-04-08T11:46:22;76800.03;;;-144.65;100.00
5146;BME280;2591;48.144;15.152;2023-04-08T11:49:00;76804.09;;;-144.65;100.00
5146;BME280;2591;48.144;15.152;2023-04-08T11:51:28;76808.19;;;-144.65;100.00
5146;BME280;2591;48.144;15.152;2023-04-08T11:53:56;76808.19;;;-144.65;100.00
5146;BME280;2591;48.144;15.152;2023-04-08T11:56:26;76806.13;;;-144.65;100.00
5146;BME280;2591;48.144;15.152;2023-04-08T11:58:54;76806.13;;;-144.65;100.00
5146;BME280;2591;48.144;15.152;2023-04-08T12:01:22;76808.19;;;-144.65;100.00
5146;BME280;2591;48.144;15.152;2023-04-08T12:03:57;76812.25;;;-144.65;100.00
5146;BME280;2591;48.144;15.152;2023-04-08T12:06:26;76804.09;;;-144.65;100.00
5146;BME280;2591;48.144;15.152;2023-04-08T12:08:55;76808.19;;;-144.65;100.00
5146;BME280;2591;48.144;15.152;2023-04-08T12:11:23;76800.03;;;-144.65;100.00
5146;BME280;2591;48.144;15.152;2023-04-08T12:13:52;76804.09;;;-144.65;100.00
5146;BME280;2591;48.144;15.152;2023-04-08T12:16:20;76808.19;;;-144.65;100.00
5146;BME280;2591;48.144;15.152;2023-04-08T12:18:48;76800.03;;;-144.65;100.00
5146;BME280;2591;48.144;15.152;2023-04-08T12:21:16;76802.06;;;-144.65;100.00
5146;BME280;2591;48.144;15.152;2023-04-08T12:23:44;76795.94;;;-144.65;100.00
5146;BME280;2591;48.144;15.152;2023-04-08T12:26:12;76787.78;;;-144.65;100.00
5146;BME280;2591;48.144;15.152;2023-04-08T12:28:40;76802.06;;;-144.65;100.00
5146;BME280;2591;48.144;15.152;2023-04-08T12:31:09;76800.03;;;-144.65;100.00
5146;BME280;2591;48.144;15.152;2023-04-08T12:33:37;76808.19;;;-144.65;100.00
5146;BME280;2591;48.144;15.152;2023-04-08T12:36:05;76820.41;;;-144.65;100.00
5146;BME280;2591;48.144;15.152;2023-04-08T12:38:32;76832.66;;;-144.65;100.00
5146;BME280;2591;48.144;15.152;2023-04-08T12:41:00;76844.88;;;-144.65;100.00
5146;BME280;2591;48.144;15.152;2023-04-08T12:43:28;76859.16;;;-144.65;100.00
5146;BME280;2591;48.144;15.152;2023-04-08T12:45:58;76867.31;;;-144.65;100.00
5146;BME280;2591;48.144;15.152;2023-04-08T12:48:28;76877.50;;;-144.65;100.00
5146;BME280;2591;48.144;15.152;2023-04-08T12:50:56;76873.44;;;-144.65;100.00
5146;BME280;2591;48.144;15.152;2023-04-08T12:53:24;76871.41;;;-144.65;100.00